sensor_id;sensor_type;location;lat;lon;timestamp;P1;durP1;ratioP1;P2;durP2;ratioP2
55300;SDS011;58302;51.446;-2.000;2022-09-28T00:01:55;36.05;;;12.30;;
55300;SDS011;58302;51.446;-2.000;2022-09-28T00:04:21;37.92;;;11.80;;
55300;SDS011;58302;51.446;-2.000;2022-09-28T00:06:47;25.75;;;9.13;;
55300;SDS011;58302;51.446;-2.000;2022-09-28T00:09:14;32.33;;;9.40;;
55300;SDS011;58302;51.446;-2.000;2022-09-28T00:11:40;31.10;;;7.78;;
55300;SDS011;58302;51.446;-2.000;2022-09-28T00:14:08;25.27;;;10.65;;
55300;SDS011;58302;51.446;-2.000;2022-09-28T00:16:37;17.00;;;5.80;;
55300;SDS011;58302;51.446;-2.000;2022-09-28T00:19:05;9.35;;;2.80;;
55300;SDS011;58302;51.446;-2.000;2022-09-28T00:21:32;16.75;;;5.97;;
55300;SDS011;58302;51.446;-2.000;2022-09-28T00:24:00;16.80;;;5.15;;
55300;SDS011;58302;51.446;-2.000;2022-09-28T00:26:41;13.73;;;4.63;;
55300;SDS011;58302;51.446;-2.000;2022-09-28T00:31:47;8.80;;;2.15;;
55300;SDS011;58302;51.446;-2.000;2022-09-28T00:34:17;9.40;;;2.80;;
55300;SDS011;58302;51.446;-2.000;2022-09-28T00:36:44;11.73;;;3.17;;
55300;SDS011;58302;51.446;-2.000;2022-09-28T00:39:11;9.50;;;2.50;;
55300;SDS011;58302;51.446;-2.000;2022-09-28T00:41:39;10.57;;;2.50;;
55300;SDS011;58302;51.446;-2.000;2022-09-28T00:44:29;9.73;;;3.15;;
55300;SDS011;58302;51.446;-2.000;2022-09-28T00:47:08;9.23;;;2.72;;
55300;SDS011;58302;51.446;-2.000;2022-09-28T00:49:43;7.72;;;3.08;;
55300;SDS011;58302;51.446;-2.000;2022-09-28T00:52:25;8.60;;;2.22;;
55300;SDS011;58302;51.446;-2.000;2022-09-28T00:54:55;12.25;;;3.00;;
55300;SDS011;58302;51.446;-2.000;2022-09-28T00:57:25;12.63;;;4.28;;
55300;SDS011;58302;51.446;-2.000;2022-09-28T00:59:53;13.80;;;4.00;;
55300;SDS011;58302;51.446;-2.000;2022-09-28T01:02:19;6.97;;;2.67;;
55300;SDS011;58302;51.446;-2.000;2022-09-28T01:04:45;9.23;;;3.47;;
55300;SDS011;58302;51.446;-2.000;2022-09-28T01:07:12;7.13;;;3.35;;
55300;SDS011;58302;51.446;-2.000;2022-09-28T01:09:38;8.00;;;3.33;;
55300;SDS011;58302;51.446;-2.000;2022-09-28T01:12:05;11.30;;;4.10;;
55300;SDS011;58302;51.446;-2.000;2022-09-28T01:14:31;13.10;;;4.50;;
55300;SDS011;58302;51.446;-2.000;2022-09-28T01:17:06;12.10;;;4.40;;
55300;SDS011;58302;51.446;-2.000;2022-09-28T01:30:15;12.98;;;4.22;;
55300;SDS011;58302;51.446;-2.000;2022-09-28T01:32:50;11.70;;;4.15;;
55300;SDS011;58302;51.446;-2.000;2022-09-28T01:38:07;7.88;;;3.72;;
55300;SDS011;58302;51.446;-2.000;2022-09-28T01:40:41;10.60;;;4.15;;
55300;SDS011;58302;51.446;-2.000;2022-09-28T01:43:12;8.30;;;3.90;;
55300;SDS011;58302;51.446;-2.000;2022-09-28T01:45:46;12.93;;;4.25;;
55300;SDS011;58302;51.446;-2.000;2022-09-28T01:48:18;9.68;;;3.47;;
55300;SDS011;58302;51.446;-2.000;2022-09-28T01:51:16;8.93;;;3.92;;
55300;SDS011;58302;51.446;-2.000;2022-09-28T01:53:50;9.70;;;4.65;;
55300;SDS011;58302;51.446;-2.000;2022-09-28T01:56:21;9.23;;;3.15;;
55300;SDS011;58302;51.446;-2.000;2022-09-28T01:58:55;9.20;;;4.13;;
55300;SDS011;58302;51.446;-2.000;2022-09-28T02:01:38;9.15;;;3.45;;
55300;SDS011;58302;51.446;-2.000;2022-09-28T02:06:53;7.93;;;3.80;;
55300;SDS011;58302;51.446;-2.000;2022-09-28T02:09:30;7.55;;;3.13;;
55300;SDS011;58302;51.446;-2.000;2022-09-28T02:12:05;11.98;;;3.60;;
55300;SDS011;58302;51.446;-2.000;2022-09-28T02:14:38;8.90;;;3.70;;
55300;SDS011;58302;51.446;-2.000;2022-09-28T02:17:07;13.82;;;3.75;;
55300;SDS011;58302;51.446;-2.000;2022-09-28T02:19:34;11.82;;;4.80;;
55300;SDS011;58302;51.446;-2.000;2022-09-28T02:24:56;8.65;;;4.55;;
55300;SDS011;58302;51.446;-2.000;2022-09-28T02:27:33;13.25;;;6.32;;
55300;SDS011;58302;51.446;-2.000;2022-09-28T02:32:29;11.02;;;4.25;;
55300;SDS011;58302;51.446;-2.000;2022-09-28T02:34:57;12.05;;;4.90;;
55300;SDS011;58302;51.446;-2.000;2022-09-28T02:37:24;8.35;;;4.30;;
55300;SDS011;58302;51.446;-2.000;2022-09-28T02:39:52;14.48;;;5.30;;
55300;SDS011;58302;51.446;-2.000;2022-09-28T02:44:59;12.15;;;4.15;;
55300;SDS011;58302;51.446;-2.000;2022-09-28T03:07:04;11.90;;;4.07;;
55300;SDS011;58302;51.446;-2.000;2022-09-28T03:09:46;10.38;;;4.30;;
55300;SDS011;58302;51.446;-2.000;2022-09-28T03:12:18;13.88;;;5.18;;
55300;SDS011;58302;51.446;-2.000;2022-09-28T03:14:45;13.50;;;6.13;;
55300;SDS011;58302;51.446;-2.000;2022-09-28T03:17:11;12.77;;;4.50;;
55300;SDS011;58302;51.446;-2.000;2022-09-28T03:19:37;9.38;;;4.60;;
55300;SDS011;58302;51.446;-2.000;2022-09-28T03:22:03;11.38;;;4.57;;
55300;SDS011;58302;51.446;-2.000;2022-09-28T03:24:30;14.23;;;4.43;;
55300;SDS011;58302;51.446;-2.000;2022-09-28T03:26:56;12.20;;;4.53;;
55300;SDS011;58302;51.446;-2.000;2022-09-28T03:29:22;15.18;;;5.05;;
55300;SDS011;58302;51.446;-2.000;2022-09-28T03:31:47;13.75;;;4.88;;
55300;SDS011;58302;51.446;-2.000;2022-09-28T03:34:13;8.40;;;3.78;;
55300;SDS011;58302;51.446;-2.000;2022-09-28T03:36:39;10.18;;;3.85;;
55300;SDS011;58302;51.446;-2.000;2022-09-28T03:39:05;13.45;;;5.30;;
55300;SDS011;58302;51.446;-2.000;2022-09-28T03:41:31;12.55;;;4.53;;
55300;SDS011;58302;51.446;-2.000;2022-09-28T03:43:57;7.80;;;4.85;;
55300;SDS011;58302;51.446;-2.000;2022-09-28T03:46:23;9.00;;;4.00;;
55300;SDS011;58302;51.446;-2.000;2022-09-28T03:48:49;9.55;;;4.38;;
55300;SDS011;58302;51.446;-2.000;2022-09-28T03:51:15;11.52;;;5.45;;
55300;SDS011;58302;51.446;-2.000;2022-09-28T03:53:41;16.50;;;5.75;;
55300;SDS011;58302;51.446;-2.000;2022-09-28T03:56:09;8.90;;;3.88;;
55300;SDS011;58302;51.446;-2.000;2022-09-28T03:58:39;14.40;;;5.00;;
55300;SDS011;58302;51.446;-2.000;2022-09-28T04:01:06;12.70;;;5.25;;
55300;SDS011;58302;51.446;-2.000;2022-09-28T04:03:34;11.60;;;4.45;;
55300;SDS011;58302;51.446;-2.000;2022-09-28T04:06:00;10.93;;;4.32;;
55300;SDS011;58302;51.446;-2.000;2022-09-28T04:08:26;6.93;;;4.40;;
55300;SDS011;58302;51.446;-2.000;2022-09-28T04:10:56;11.70;;;5.63;;
55300;SDS011;58302;51.446;-2.000;2022-09-28T04:13:23;9.45;;;4.53;;
55300;SDS011;58302;51.446;-2.000;2022-09-28T04:15:53;11.30;;;4.50;;
55300;SDS011;58302;51.446;-2.000;2022-09-28T04:18:21;12.38;;;5.07;;
55300;SDS011;58302;51.446;-2.000;2022-09-28T04:20:47;16.52;;;6.15;;
55300;SDS011;58302;51.446;-2.000;2022-09-28T04:23:23;14.13;;;4.93;;
55300;SDS011;58302;51.446;-2.000;2022-09-28T04:25:52;13.05;;;5.30;;
55300;SDS011;58302;51.446;-2.000;2022-09-28T04:28:19;11.38;;;5.50;;
55300;SDS011;58302;51.446;-2.000;2022-09-28T04:31:07;17.38;;;5.10;;
55300;SDS011;58302;51.446;-2.000;2022-09-28T04:33:35;13.52;;;5.18;;
55300;SDS011;58302;51.446;-2.000;2022-09-28T04:36:01;11.75;;;4.90;;
55300;SDS011;58302;51.446;-2.000;2022-09-28T04:38:27;16.02;;;5.35;;
55300;SDS011;58302;51.446;-2.000;2022-09-28T04:40:53;14.70;;;5.88;;
55300;SDS011;58302;51.446;-2.000;2022-09-28T04:43:19;12.90;;;5.20;;
55300;SDS011;58302;51.446;-2.000;2022-09-28T04:45:44;14.00;;;5.70;;
55300;SDS011;58302;51.446;-2.000;2022-09-28T04:48:10;14.75;;;4.78;;
55300;SDS011;58302;51.446;-2.000;2022-09-28T04:50:36;10.77;;;4.43;;
55300;SDS011;58302;51.446;-2.000;2022-09-28T04:53:02;16.27;;;5.55;;
55300;SDS011;58302;51.446;-2.000;2022-09-28T04:55:28;10.68;;;5.13;;
55300;SDS011;58302;51.446;-2.000;2022-09-28T04:57:57;8.32;;;4.45;;
55300;SDS011;58302;51.446;-2.000;2022-09-28T05:00:27;14.10;;;5.43;;
55300;SDS011;58302;51.446;-2.000;2022-09-28T05:02:57;10.80;;;5.82;;
55300;SDS011;58302;51.446;-2.000;2022-09-28T05:05:23;8.45;;;3.97;;
55300;SDS011;58302;51.446;-2.000;2022-09-28T05:07:49;7.47;;;4.47;;
55300;SDS011;58302;51.446;-2.000;2022-09-28T05:10:15;6.95;;;4.15;;
55300;SDS011;58302;51.446;-2.000;2022-09-28T05:12:41;9.02;;;5.63;;
55300;SDS011;58302;51.446;-2.000;2022-09-28T05:15:07;14.50;;;5.15;;
55300;SDS011;58302;51.446;-2.000;2022-09-28T05:17:33;10.07;;;4.60;;
55300;SDS011;58302;51.446;-2.000;2022-09-28T05:19:59;10.18;;;4.15;;
55300;SDS011;58302;51.446;-2.000;2022-09-28T05:22:27;9.68;;;4.10;;
55300;SDS011;58302;51.446;-2.000;2022-09-28T05:24:53;13.07;;;5.50;;
55300;SDS011;58302;51.446;-2.000;2022-09-28T05:27:20;7.90;;;4.18;;
55300;SDS011;58302;51.446;-2.000;2022-09-28T05:29:46;10.45;;;4.88;;
55300;SDS011;58302;51.446;-2.000;2022-09-28T05:32:12;11.65;;;4.90;;
55300;SDS011;58302;51.446;-2.000;2022-09-28T05:34:38;10.57;;;4.35;;
55300;SDS011;58302;51.446;-2.000;2022-09-28T05:37:03;9.45;;;3.92;;
55300;SDS011;58302;51.446;-2.000;2022-09-28T05:39:29;18.27;;;6.20;;
55300;SDS011;58302;51.446;-2.000;2022-09-28T05:41:55;9.32;;;4.43;;
55300;SDS011;58302;51.446;-2.000;2022-09-28T05:44:22;12.07;;;4.00;;
55300;SDS011;58302;51.446;-2.000;2022-09-28T05:46:49;12.38;;;3.67;;
55300;SDS011;58302;51.446;-2.000;2022-09-28T05:49:17;11.43;;;4.32;;
55300;SDS011;58302;51.446;-2.000;2022-09-28T05:51:43;8.52;;;4.28;;
55300;SDS011;58302;51.446;-2.000;2022-09-28T05:54:09;15.07;;;5.43;;
55300;SDS011;58302;51.446;-2.000;2022-09-28T05:56:35;9.20;;;4.60;;
55300;SDS011;58302;51.446;-2.000;2022-09-28T05:59:01;11.88;;;4.25;;
55300;SDS011;58302;51.446;-2.000;2022-09-28T06:01:29;8.27;;;4.75;;
55300;SDS011;58302;51.446;-2.000;2022-09-28T06:03:55;10.15;;;4.10;;
55300;SDS011;58302;51.446;-2.000;2022-09-28T06:06:21;10.32;;;3.63;;
55300;SDS011;58302;51.446;-2.000;2022-09-28T06:08:47;7.70;;;3.75;;
55300;SDS011;58302;51.446;-2.000;2022-09-28T06:11:13;9.55;;;3.47;;
55300;SDS011;58302;51.446;-2.000;2022-09-28T06:13:39;9.90;;;3.50;;
55300;SDS011;58302;51.446;-2.000;2022-09-28T06:16:08;8.68;;;4.10;;
55300;SDS011;58302;51.446;-2.000;2022-09-28T06:18:39;6.32;;;2.40;;
55300;SDS011;58302;51.446;-2.000;2022-09-28T06:21:06;6.53;;;3.38;;
55300;SDS011;58302;51.446;-2.000;2022-09-28T06:23:35;10.57;;;4.20;;
55300;SDS011;58302;51.446;-2.000;2022-09-28T06:26:01;10.18;;;4.15;;
55300;SDS011;58302;51.446;-2.000;2022-09-28T06:28:27;10.27;;;3.40;;
55300;SDS011;58302;51.446;-2.000;2022-09-28T06:30:53;6.70;;;3.58;;
55300;SDS011;58302;51.446;-2.000;2022-09-28T06:33:19;11.65;;;3.88;;
55300;SDS011;58302;51.446;-2.000;2022-09-28T06:35:46;12.50;;;4.88;;
55300;SDS011;58302;51.446;-2.000;2022-09-28T06:38:12;6.95;;;3.67;;
55300;SDS011;58302;51.446;-2.000;2022-09-28T06:40:38;9.43;;;3.75;;
55300;SDS011;58302;51.446;-2.000;2022-09-28T06:43:13;13.88;;;4.75;;
55300;SDS011;58302;51.446;-2.000;2022-09-28T06:45:40;8.85;;;3.83;;
55300;SDS011;58302;51.446;-2.000;2022-09-28T06:48:08;15.32;;;4.53;;
55300;SDS011;58302;51.446;-2.000;2022-09-28T06:50:36;15.13;;;4.10;;
55300;SDS011;58302;51.446;-2.000;2022-09-28T06:53:04;5.80;;;3.60;;
55300;SDS011;58302;51.446;-2.000;2022-09-28T06:55:32;11.18;;;3.25;;
55300;SDS011;58302;51.446;-2.000;2022-09-28T06:58:02;11.23;;;4.25;;
55300;SDS011;58302;51.446;-2.000;2022-09-28T07:00:32;16.23;;;3.55;;
55300;SDS011;58302;51.446;-2.000;2022-09-28T07:03:04;9.75;;;4.70;;
55300;SDS011;58302;51.446;-2.000;2022-09-28T07:05:43;11.00;;;3.40;;
55300;SDS011;58302;51.446;-2.000;2022-09-28T07:08:11;12.15;;;3.90;;
55300;SDS011;58302;51.446;-2.000;2022-09-28T07:10:41;10.85;;;3.90;;
55300;SDS011;58302;51.446;-2.000;2022-09-28T07:13:11;5.85;;;2.53;;
55300;SDS011;58302;51.446;-2.000;2022-09-28T07:15:39;7.50;;;3.03;;
55300;SDS011;58302;51.446;-2.000;2022-09-28T07:18:06;7.80;;;3.03;;
55300;SDS011;58302;51.446;-2.000;2022-09-28T07:20:33;10.00;;;4.00;;
55300;SDS011;58302;51.446;-2.000;2022-09-28T07:23:01;10.85;;;2.65;;
55300;SDS011;58302;51.446;-2.000;2022-09-28T07:25:28;5.70;;;2.33;;
55300;SDS011;58302;51.446;-2.000;2022-09-28T07:27:56;7.20;;;3.22;;
55300;SDS011;58302;51.446;-2.000;2022-09-28T07:30:24;8.95;;;3.13;;
55300;SDS011;58302;51.446;-2.000;2022-09-28T07:32:54;8.40;;;3.35;;
55300;SDS011;58302;51.446;-2.000;2022-09-28T07:35:20;7.50;;;2.65;;
55300;SDS011;58302;51.446;-2.000;2022-09-28T07:37:47;7.57;;;2.83;;
55300;SDS011;58302;51.446;-2.000;2022-09-28T07:40:13;7.28;;;3.42;;
55300;SDS011;58302;51.446;-2.000;2022-09-28T07:45:30;8.73;;;3.28;;
55300;SDS011;58302;51.446;-2.000;2022-09-28T07:47:58;5.40;;;2.75;;
55300;SDS011;58302;51.446;-2.000;2022-09-28T07:50:24;6.28;;;2.95;;
55300;SDS011;58302;51.446;-2.000;2022-09-28T07:52:50;6.05;;;2.85;;
55300;SDS011;58302;51.446;-2.000;2022-09-28T07:55:19;5.00;;;1.77;;
55300;SDS011;58302;51.446;-2.000;2022-09-28T07:57:45;7.85;;;3.60;;
55300;SDS011;58302;51.446;-2.000;2022-09-28T08:00:13;6.88;;;3.88;;
55300;SDS011;58302;51.446;-2.000;2022-09-28T08:02:39;9.80;;;3.88;;
55300;SDS011;58302;51.446;-2.000;2022-09-28T08:05:05;9.65;;;3.55;;
55300;SDS011;58302;51.446;-2.000;2022-09-28T08:07:34;6.55;;;2.58;;
55300;SDS011;58302;51.446;-2.000;2022-09-28T08:10:02;6.43;;;1.75;;
55300;SDS011;58302;51.446;-2.000;2022-09-28T08:12:29;2.88;;;2.00;;
55300;SDS011;58302;51.446;-2.000;2022-09-28T08:14:55;4.05;;;1.70;;
55300;SDS011;58302;51.446;-2.000;2022-09-28T08:17:21;4.93;;;2.08;;
55300;SDS011;58302;51.446;-2.000;2022-09-28T08:19:47;5.10;;;2.15;;
55300;SDS011;58302;51.446;-2.000;2022-09-28T08:22:31;4.78;;;1.83;;
55300;SDS011;58302;51.446;-2.000;2022-09-28T08:24:57;3.90;;;1.35;;
55300;SDS011;58302;51.446;-2.000;2022-09-28T08:27:23;3.42;;;1.45;;
55300;SDS011;58302;51.446;-2.000;2022-09-28T08:29:49;5.03;;;1.63;;
55300;SDS011;58302;51.446;-2.000;2022-09-28T08:32:15;3.65;;;1.90;;
55300;SDS011;58302;51.446;-2.000;2022-09-28T08:34:42;3.03;;;1.05;;
55300;SDS011;58302;51.446;-2.000;2022-09-28T08:37:08;7.40;;;2.45;;
55300;SDS011;58302;51.446;-2.000;2022-09-28T08:39:35;1.90;;;1.23;;
55300;SDS011;58302;51.446;-2.000;2022-09-28T08:44:59;5.70;;;1.45;;
55300;SDS011;58302;51.446;-2.000;2022-09-28T08:47:39;1.92;;;1.10;;
55300;SDS011;58302;51.446;-2.000;2022-09-28T08:50:29;4.07;;;1.50;;
55300;SDS011;58302;51.446;-2.000;2022-09-28T08:53:44;1.85;;;0.80;;
55300;SDS011;58302;51.446;-2.000;2022-09-28T08:55:49;3.83;;;1.25;;
55300;SDS011;58302;51.446;-2.000;2022-09-28T08:58:17;1.65;;;0.95;;
55300;SDS011;58302;51.446;-2.000;2022-09-28T09:00:49;1.15;;;0.90;;
55300;SDS011;58302;51.446;-2.000;2022-09-28T09:03:33;3.17;;;1.60;;
55300;SDS011;58302;51.446;-2.000;2022-09-28T09:08:57;2.03;;;0.68;;
55300;SDS011;58302;51.446;-2.000;2022-09-28T09:12:01;3.42;;;1.17;;
55300;SDS011;58302;51.446;-2.000;2022-09-28T09:17:41;2.83;;;1.80;;
55300;SDS011;58302;51.446;-2.000;2022-09-28T09:20:49;2.13;;;0.95;;
55300;SDS011;58302;51.446;-2.000;2022-09-28T09:26:49;3.10;;;1.02;;
55300;SDS011;58302;51.446;-2.000;2022-09-28T09:29:12;5.07;;;1.67;;
55300;SDS011;58302;51.446;-2.000;2022-09-28T09:47:42;2.00;;;1.10;;
55300;SDS011;58302;51.446;-2.000;2022-09-28T09:53:17;3.75;;;1.10;;
55300;SDS011;58302;51.446;-2.000;2022-09-28T09:55:55;3.97;;;0.90;;
55300;SDS011;58302;51.446;-2.000;2022-09-28T09:58:30;2.72;;;1.35;;
55300;SDS011;58302;51.446;-2.000;2022-09-28T10:00:59;3.78;;;1.10;;
55300;SDS011;58302;51.446;-2.000;2022-09-28T10:03:32;2.33;;;0.80;;
55300;SDS011;58302;51.446;-2.000;2022-09-28T10:06:05;1.35;;;0.85;;
55300;SDS011;58302;51.446;-2.000;2022-09-28T10:08:40;1.63;;;1.15;;
55300;SDS011;58302;51.446;-2.000;2022-09-28T10:11:11;2.13;;;1.15;;
55300;SDS011;58302;51.446;-2.000;2022-09-28T10:13:41;3.72;;;1.23;;
55300;SDS011;58302;51.446;-2.000;2022-09-28T10:16:09;3.40;;;1.20;;
55300;SDS011;58302;51.446;-2.000;2022-09-28T10:18:35;2.00;;;0.80;;
55300;SDS011;58302;51.446;-2.000;2022-09-28T10:21:02;2.55;;;1.48;;
55300;SDS011;58302;51.446;-2.000;2022-09-28T10:23:29;1.42;;;0.80;;
55300;SDS011;58302;51.446;-2.000;2022-09-28T10:26:01;3.53;;;1.50;;
55300;SDS011;58302;51.446;-2.000;2022-09-28T10:28:32;2.58;;;1.02;;
55300;SDS011;58302;51.446;-2.000;2022-09-28T10:34:02;1.92;;;1.05;;
55300;SDS011;58302;51.446;-2.000;2022-09-28T10:36:30;2.58;;;1.00;;
55300;SDS011;58302;51.446;-2.000;2022-09-28T10:39:05;2.15;;;1.13;;
55300;SDS011;58302;51.446;-2.000;2022-09-28T10:41:49;1.88;;;0.95;;
55300;SDS011;58302;51.446;-2.000;2022-09-28T10:44:16;2.67;;;1.90;;
55300;SDS011;58302;51.446;-2.000;2022-09-28T10:46:44;1.55;;;0.90;;
55300;SDS011;58302;51.446;-2.000;2022-09-28T10:49:21;0.82;;;0.60;;
55300;SDS011;58302;51.446;-2.000;2022-09-28T10:51:49;3.33;;;0.90;;
55300;SDS011;58302;51.446;-2.000;2022-09-28T10:54:18;2.03;;;0.73;;
55300;SDS011;58302;51.446;-2.000;2022-09-28T10:56:46;2.80;;;1.10;;
55300;SDS011;58302;51.446;-2.000;2022-09-28T11:01:55;1.73;;;0.88;;
55300;SDS011;58302;51.446;-2.000;2022-09-28T11:04:28;3.20;;;1.50;;
55300;SDS011;58302;51.446;-2.000;2022-09-28T11:07:00;2.13;;;1.13;;
55300;SDS011;58302;51.446;-2.000;2022-09-28T11:12:03;1.33;;;0.77;;
55300;SDS011;58302;51.446;-2.000;2022-09-28T11:14:32;2.70;;;1.65;;
55300;SDS011;58302;51.446;-2.000;2022-09-28T11:19:56;1.42;;;0.80;;
55300;SDS011;58302;51.446;-2.000;2022-09-28T11:22:29;2.55;;;1.02;;
55300;SDS011;58302;51.446;-2.000;2022-09-28T11:27:41;3.80;;;0.80;;
55300;SDS011;58302;51.446;-2.000;2022-09-28T11:31:02;1.10;;;0.80;;
55300;SDS011;58302;51.446;-2.000;2022-09-28T11:33:17;0.90;;;0.80;;
55300;SDS011;58302;51.446;-2.000;2022-09-28T11:35:50;1.13;;;0.77;;
55300;SDS011;58302;51.446;-2.000;2022-09-28T11:52:05;0.45;;;0.40;;
55300;SDS011;58302;51.446;-2.000;2022-09-28T11:54:43;0.63;;;0.60;;
55300;SDS011;58302;51.446;-2.000;2022-09-28T11:57:17;1.35;;;0.63;;
55300;SDS011;58302;51.446;-2.000;2022-09-28T12:00:03;1.77;;;0.88;;
55300;SDS011;58302;51.446;-2.000;2022-09-28T12:02:36;0.40;;;0.40;;
55300;SDS011;58302;51.446;-2.000;2022-09-28T12:07:36;1.55;;;0.82;;
55300;SDS011;58302;51.446;-2.000;2022-09-28T12:13:09;2.08;;;0.73;;
55300;SDS011;58302;51.446;-2.000;2022-09-28T12:15:45;1.90;;;0.93;;
55300;SDS011;58302;51.446;-2.000;2022-09-28T12:18:22;1.10;;;0.50;;
55300;SDS011;58302;51.446;-2.000;2022-09-28T12:21:41;1.17;;;0.65;;
55300;SDS011;58302;51.446;-2.000;2022-09-28T12:23:43;1.20;;;0.52;;
55300;SDS011;58302;51.446;-2.000;2022-09-28T12:29:12;1.42;;;0.77;;
55300;SDS011;58302;51.446;-2.000;2022-09-28T12:34:36;0.88;;;0.70;;
55300;SDS011;58302;51.446;-2.000;2022-09-28T12:37:25;1.10;;;0.73;;
55300;SDS011;58302;51.446;-2.000;2022-09-28T12:40:01;1.67;;;0.70;;
55300;SDS011;58302;51.446;-2.000;2022-09-28T12:42:46;1.23;;;0.90;;
55300;SDS011;58302;51.446;-2.000;2022-09-28T12:48:29;1.85;;;0.85;;
55300;SDS011;58302;51.446;-2.000;2022-09-28T12:56:32;0.88;;;0.68;;
55300;SDS011;58302;51.446;-2.000;2022-09-28T12:59:27;2.28;;;1.35;;
55300;SDS011;58302;51.446;-2.000;2022-09-28T13:07:28;2.78;;;1.10;;
55300;SDS011;58302;51.446;-2.000;2022-09-28T13:10:25;2.60;;;1.13;;
55300;SDS011;58302;51.446;-2.000;2022-09-28T13:19:23;1.23;;;0.88;;
55300;SDS011;58302;51.446;-2.000;2022-09-28T13:24:53;1.77;;;0.70;;
55300;SDS011;58302;51.446;-2.000;2022-09-28T13:27:26;1.20;;;0.95;;
55300;SDS011;58302;51.446;-2.000;2022-09-28T13:32:25;2.67;;;1.02;;
55300;SDS011;58302;51.446;-2.000;2022-09-28T13:34:54;1.98;;;0.80;;
55300;SDS011;58302;51.446;-2.000;2022-09-28T13:37:22;1.42;;;0.75;;
55300;SDS011;58302;51.446;-2.000;2022-09-28T13:39:51;1.70;;;0.60;;
55300;SDS011;58302;51.446;-2.000;2022-09-28T13:44:55;2.40;;;1.17;;
55300;SDS011;58302;51.446;-2.000;2022-09-28T13:52:46;1.33;;;0.95;;
55300;SDS011;58302;51.446;-2.000;2022-09-28T13:55:21;1.52;;;1.15;;
55300;SDS011;58302;51.446;-2.000;2022-09-28T13:58:02;2.80;;;1.00;;
55300;SDS011;58302;51.446;-2.000;2022-09-28T14:00:44;1.38;;;0.95;;
55300;SDS011;58302;51.446;-2.000;2022-09-28T14:06:20;2.05;;;0.98;;
55300;SDS011;58302;51.446;-2.000;2022-09-28T14:20:01;2.17;;;1.00;;
55300;SDS011;58302;51.446;-2.000;2022-09-28T14:25:42;1.60;;;0.82;;
55300;SDS011;58302;51.446;-2.000;2022-09-28T14:30:46;1.83;;;0.85;;
55300;SDS011;58302;51.446;-2.000;2022-09-28T14:38:22;1.77;;;1.08;;
55300;SDS011;58302;51.446;-2.000;2022-09-28T14:56:37;1.77;;;1.00;;
55300;SDS011;58302;51.446;-2.000;2022-09-28T14:59:25;2.03;;;0.93;;
55300;SDS011;58302;51.446;-2.000;2022-09-28T15:02:06;1.00;;;0.90;;
55300;SDS011;58302;51.446;-2.000;2022-09-28T15:04:33;2.78;;;1.00;;
55300;SDS011;58302;51.446;-2.000;2022-09-28T15:07:26;0.82;;;0.82;;
55300;SDS011;58302;51.446;-2.000;2022-09-28T15:09:55;1.75;;;1.10;;
55300;SDS011;58302;51.446;-2.000;2022-09-28T15:12:26;1.30;;;1.20;;
55300;SDS011;58302;51.446;-2.000;2022-09-28T15:14:57;1.58;;;1.42;;
55300;SDS011;58302;51.446;-2.000;2022-09-28T15:22:58;1.40;;;1.00;;
55300;SDS011;58302;51.446;-2.000;2022-09-28T15:25:25;2.03;;;1.27;;
55300;SDS011;58302;51.446;-2.000;2022-09-28T15:27:54;1.27;;;0.88;;
55300;SDS011;58302;51.446;-2.000;2022-09-28T15:30:26;1.30;;;1.02;;
55300;SDS011;58302;51.446;-2.000;2022-09-28T15:32:54;1.65;;;1.00;;
55300;SDS011;58302;51.446;-2.000;2022-09-28T15:35:41;2.05;;;1.20;;
55300;SDS011;58302;51.446;-2.000;2022-09-28T15:38:18;1.42;;;1.10;;
55300;SDS011;58302;51.446;-2.000;2022-09-28T15:40:44;2.35;;;1.48;;
55300;SDS011;58302;51.446;-2.000;2022-09-28T15:43:31;2.88;;;1.52;;
55300;SDS011;58302;51.446;-2.000;2022-09-28T15:46:03;4.00;;;1.90;;
55300;SDS011;58302;51.446;-2.000;2022-09-28T15:56:27;1.85;;;1.00;;
55300;SDS011;58302;51.446;-2.000;2022-09-28T15:59:07;2.45;;;1.45;;
55300;SDS011;58302;51.446;-2.000;2022-09-28T16:01:42;1.98;;;1.27;;
55300;SDS011;58302;51.446;-2.000;2022-09-28T16:12:38;1.60;;;1.10;;
55300;SDS011;58302;51.446;-2.000;2022-09-28T16:17:51;2.53;;;1.00;;
55300;SDS011;58302;51.446;-2.000;2022-09-28T16:20:30;0.95;;;0.90;;
55300;SDS011;58302;51.446;-2.000;2022-09-28T16:23:00;3.80;;;1.15;;
55300;SDS011;58302;51.446;-2.000;2022-09-28T16:25:34;2.38;;;1.42;;
55300;SDS011;58302;51.446;-2.000;2022-09-28T16:28:03;1.30;;;1.10;;
55300;SDS011;58302;51.446;-2.000;2022-09-28T16:30:32;1.42;;;1.23;;
55300;SDS011;58302;51.446;-2.000;2022-09-28T16:33:03;2.47;;;1.15;;
55300;SDS011;58302;51.446;-2.000;2022-09-28T16:38:01;2.33;;;1.00;;
55300;SDS011;58302;51.446;-2.000;2022-09-28T16:40:37;2.42;;;1.10;;
55300;SDS011;58302;51.446;-2.000;2022-09-28T16:43:27;1.40;;;1.10;;
55300;SDS011;58302;51.446;-2.000;2022-09-28T16:45:56;1.42;;;1.00;;
55300;SDS011;58302;51.446;-2.000;2022-09-28T16:48:25;2.70;;;1.40;;
55300;SDS011;58302;51.446;-2.000;2022-09-28T16:50:52;1.67;;;1.15;;
55300;SDS011;58302;51.446;-2.000;2022-09-28T16:53:19;1.15;;;0.80;;
55300;SDS011;58302;51.446;-2.000;2022-09-28T16:56:04;1.30;;;1.20;;
55300;SDS011;58302;51.446;-2.000;2022-09-28T16:58:30;1.38;;;1.25;;
55300;SDS011;58302;51.446;-2.000;2022-09-28T17:00:57;4.55;;;1.95;;
55300;SDS011;58302;51.446;-2.000;2022-09-28T17:03:24;1.05;;;1.00;;
55300;SDS011;58302;51.446;-2.000;2022-09-28T17:05:51;3.30;;;1.48;;
55300;SDS011;58302;51.446;-2.000;2022-09-28T17:08:18;1.92;;;1.45;;
55300;SDS011;58302;51.446;-2.000;2022-09-28T17:13:25;3.53;;;2.30;;
55300;SDS011;58302;51.446;-2.000;2022-09-28T17:15:58;3.22;;;2.42;;
55300;SDS011;58302;51.446;-2.000;2022-09-28T17:18:26;2.22;;;1.55;;
55300;SDS011;58302;51.446;-2.000;2022-09-28T17:20:52;2.38;;;1.52;;
55300;SDS011;58302;51.446;-2.000;2022-09-28T17:23:21;3.25;;;2.90;;
55300;SDS011;58302;51.446;-2.000;2022-09-28T17:25:47;4.22;;;2.70;;
55300;SDS011;58302;51.446;-2.000;2022-09-28T17:28:18;5.25;;;2.40;;
55300;SDS011;58302;51.446;-2.000;2022-09-28T17:30:46;2.88;;;1.75;;
55300;SDS011;58302;51.446;-2.000;2022-09-28T17:33:13;4.32;;;2.63;;
55300;SDS011;58302;51.446;-2.000;2022-09-28T17:35:39;2.70;;;1.40;;
55300;SDS011;58302;51.446;-2.000;2022-09-28T17:38:11;2.45;;;1.30;;
55300;SDS011;58302;51.446;-2.000;2022-09-28T17:40:38;3.25;;;1.90;;
55300;SDS011;58302;51.446;-2.000;2022-09-28T17:43:04;2.65;;;1.98;;
55300;SDS011;58302;51.446;-2.000;2022-09-28T17:45:31;2.90;;;1.63;;
55300;SDS011;58302;51.446;-2.000;2022-09-28T17:47:58;3.22;;;1.83;;
55300;SDS011;58302;51.446;-2.000;2022-09-28T17:50:29;4.35;;;1.52;;
55300;SDS011;58302;51.446;-2.000;2022-09-28T17:52:58;4.47;;;2.03;;
55300;SDS011;58302;51.446;-2.000;2022-09-28T17:55:31;3.88;;;2.00;;
55300;SDS011;58302;51.446;-2.000;2022-09-28T17:57:59;5.68;;;2.20;;
55300;SDS011;58302;51.446;-2.000;2022-09-28T18:00:26;2.13;;;1.65;;
55300;SDS011;58302;51.446;-2.000;2022-09-28T18:02:53;4.05;;;2.47;;
55300;SDS011;58302;51.446;-2.000;2022-09-28T18:05:20;2.50;;;1.85;;
55300;SDS011;58302;51.446;-2.000;2022-09-28T18:07:47;3.22;;;1.83;;
55300;SDS011;58302;51.446;-2.000;2022-09-28T18:10:23;5.15;;;2.63;;
55300;SDS011;58302;51.446;-2.000;2022-09-28T18:12:50;3.85;;;2.28;;
55300;SDS011;58302;51.446;-2.000;2022-09-28T18:15:17;3.47;;;2.20;;
55300;SDS011;58302;51.446;-2.000;2022-09-28T18:17:44;6.60;;;3.55;;
55300;SDS011;58302;51.446;-2.000;2022-09-28T18:20:10;3.33;;;1.80;;
55300;SDS011;58302;51.446;-2.000;2022-09-28T18:22:37;2.28;;;1.75;;
55300;SDS011;58302;51.446;-2.000;2022-09-28T18:25:03;3.97;;;2.42;;
55300;SDS011;58302;51.446;-2.000;2022-09-28T18:27:30;2.90;;;1.40;;
55300;SDS011;58302;51.446;-2.000;2022-09-28T18:29:58;4.35;;;1.50;;
55300;SDS011;58302;51.446;-2.000;2022-09-28T18:32:25;1.85;;;1.30;;
55300;SDS011;58302;51.446;-2.000;2022-09-28T18:34:51;1.98;;;1.60;;